createdAt,value
2019-02-28T00:00:40.713Z,89.62
2019-02-28T00:03:10.842Z,89.96
2019-02-28T00:05:41.280Z,89.86
2019-02-28T00:08:11.672Z,89.98
2019-02-28T00:10:42.318Z,90.17
2019-02-28T00:13:12.712Z,90.43
2019-02-28T00:15:43.113Z,90.59
2019-02-28T00:18:15.193Z,90.86
2019-02-28T00:20:45.629Z,90.86
2019-02-28T00:23:16.044Z,90.84
2019-02-28T00:25:46.487Z,91.37
2019-02-28T00:28:16.933Z,91.37
2019-02-28T00:30:47.338Z,91.42
2019-02-28T00:33:17.741Z,91.80
2019-02-28T00:35:48.141Z,91.80
2019-02-28T00:38:18.552Z,91.92
2019-02-28T00:40:48.941Z,91.90
2019-02-28T00:43:19.361Z,91.99
2019-02-28T00:45:51.467Z,92.17
2019-02-28T00:48:22.403Z,92.31
2019-02-28T00:50:52.868Z,92.37
2019-02-28T00:53:23.270Z,92.53
2019-02-28T00:55:53.660Z,92.54
2019-02-28T00:58:28.869Z,92.64
2019-02-28T01:00:58.969Z,92.74
2019-02-28T01:03:29.357Z,92.75
2019-02-28T01:05:59.778Z,92.87
2019-02-28T01:08:30.170Z,92.80
2019-02-28T01:11:00.593Z,92.85
2019-02-28T01:13:30.979Z,92.88
2019-02-28T01:16:01.418Z,92.89
2019-02-28T01:18:34.433Z,92.93
2019-02-28T01:21:03.868Z,92.96
2019-02-28T01:23:34.253Z,93.05
2019-02-28T01:26:04.639Z,93.08
2019-02-28T01:28:35.027Z,93.06
2019-02-28T01:31:05.461Z,93.04
2019-02-28T01:33:35.822Z,92.99
2019-02-28T01:36:06.300Z,92.85
2019-02-28T01:38:36.670Z,92.85
2019-02-28T01:41:08.310Z,92.77
2019-02-28T01:43:39.184Z,92.66
2019-02-28T01:46:09.604Z,92.64
2019-02-28T01:48:40.034Z,92.57
2019-02-28T01:51:10.444Z,92.59
2019-02-28T01:53:40.865Z,92.55
2019-02-28T01:56:11.287Z,92.43
2019-02-28T01:58:41.674Z,92.20
2019-02-28T02:01:12.073Z,92.12
2019-02-28T02:03:42.455Z,92.07
2019-02-28T02:06:12.829Z,91.85
2019-02-28T02:08:43.220Z,91.49
2019-02-28T02:11:13.662Z,91.26
2019-02-28T02:13:44.090Z,91.19
2019-02-28T02:16:14.462Z,91.13
2019-02-28T02:18:44.827Z,91.29
2019-02-28T02:21:15.217Z,91.27
2019-02-28T02:23:49.672Z,91.26
2019-02-28T02:26:19.064Z,91.28
2019-02-28T02:28:49.466Z,91.30
2019-02-28T02:31:19.858Z,91.41
2019-02-28T02:33:52.454Z,91.45
2019-02-28T02:36:22.389Z,91.34
2019-02-28T02:38:52.801Z,91.16
2019-02-28T02:41:23.203Z,91.35
2019-02-28T02:43:54.979Z,91.31
2019-02-28T02:46:27.362Z,91.47
2019-02-28T02:48:57.851Z,91.33
2019-02-28T02:51:28.283Z,91.39
2019-02-28T02:53:58.717Z,91.39
2019-02-28T02:56:29.153Z,91.36
2019-02-28T02:59:01.140Z,91.44
2019-02-28T03:01:31.604Z,91.52
2019-02-28T03:04:02.060Z,91.51
2019-02-28T03:06:32.496Z,91.54
2019-02-28T03:09:04.998Z,91.48
2019-02-28T03:11:35.437Z,91.39
2019-02-28T03:14:05.837Z,91.37
2019-02-28T03:16:36.229Z,91.30
2019-02-28T03:19:06.646Z,91.29
2019-02-28T03:21:37.027Z,91.25
2019-02-28T03:24:07.414Z,91.10
2019-02-28T03:26:41.583Z,91.12
2019-02-28T03:29:09.940Z,90.95
2019-02-28T03:31:40.338Z,90.90
2019-02-28T03:34:13.792Z,90.82
2019-02-28T03:36:42.818Z,90.84
2019-02-28T03:39:13.241Z,90.82
2019-02-28T03:41:43.690Z,90.78
2019-02-28T03:44:20.030Z,90.73
2019-02-28T03:46:47.978Z,90.74
2019-02-28T03:49:18.433Z,90.62
2019-02-28T03:51:48.866Z,90.76
2019-02-28T03:54:19.321Z,90.53
2019-02-28T03:56:52.699Z,90.39
2019-02-28T03:59:21.893Z,90.44
2019-02-28T04:01:52.328Z,90.15
2019-02-28T04:04:22.713Z,90.24
2019-02-28T04:06:53.128Z,90.25
2019-02-28T04:09:25.102Z,90.19
2019-02-28T04:11:55.494Z,90.07
2019-02-28T04:14:28.255Z,90.11
2019-02-28T04:16:58.029Z,90.26
2019-02-28T04:19:28.463Z,90.34
2019-02-28T04:21:59.768Z,90.41
2019-02-28T04:24:30.202Z,90.48
2019-02-28T04:27:06.265Z,90.60
2019-02-28T04:29:32.661Z,90.56
2019-02-28T04:32:03.150Z,90.57
2019-02-28T04:34:33.570Z,90.41
2019-02-28T04:37:03.987Z,90.43
2019-02-28T04:39:34.428Z,90.49
2019-02-28T04:42:05.172Z,90.49
2019-02-28T04:44:36.499Z,90.36
2019-02-28T04:47:07.653Z,90.65
2019-02-28T04:49:38.124Z,90.39
2019-02-28T04:52:11.767Z,89.97
2019-02-28T04:54:41.293Z,90.35
2019-02-28T04:57:11.774Z,89.93
2019-02-28T04:59:43.422Z,89.70
2019-02-28T05:02:13.844Z,89.35
2019-02-28T05:04:44.297Z,89.74
2019-02-28T05:07:14.751Z,89.53
2019-02-28T05:09:48.035Z,89.64
2019-02-28T05:12:17.308Z,89.60
2019-02-28T05:14:47.703Z,89.59
2019-02-28T05:17:19.317Z,89.56
2019-02-28T05:19:50.267Z,89.22
2019-02-28T05:22:20.688Z,88.36
2019-02-28T05:24:51.090Z,88.61
2019-02-28T05:27:24.423Z,88.41
2019-02-28T05:29:55.007Z,88.18
2019-02-28T05:32:25.412Z,88.18
2019-02-28T05:34:55.840Z,87.22
2019-02-28T05:37:26.341Z,88.07
2019-02-28T05:40:05.622Z,87.74
2019-02-28T05:42:31.694Z,88.13
2019-02-28T05:45:02.131Z,87.66
2019-02-28T05:47:45.766Z,87.30
2019-02-28T05:50:15.196Z,86.95
2019-02-28T05:52:43.992Z,86.64
2019-02-28T05:55:14.400Z,86.02
2019-02-28T05:57:46.495Z,86.02
2019-02-28T06:00:18.494Z,86.24
2019-02-28T06:02:48.934Z,85.98
2019-02-28T06:05:20.929Z,85.65
2019-02-28T06:07:51.332Z,86.05
2019-02-28T06:10:24.663Z,86.05
2019-02-28T06:12:53.835Z,86.16
2019-02-28T06:15:25.752Z,85.61
2019-02-28T06:17:56.279Z,84.76
2019-02-28T06:20:26.714Z,84.08
2019-02-28T06:22:57.106Z,83.68
2019-02-28T06:25:27.530Z,83.68
2019-02-28T06:27:57.979Z,83.41
2019-02-28T06:30:28.500Z,83.85
2019-02-28T06:32:59.543Z,84.28
2019-02-28T06:35:30.051Z,83.59
2019-02-28T06:38:00.487Z,83.65
2019-02-28T06:40:33.118Z,83.17
2019-02-28T06:43:03.020Z,83.01
2019-02-28T06:45:36.720Z,82.67
2019-02-28T06:48:05.528Z,83.36
2019-02-28T06:50:35.971Z,82.12
2019-02-28T06:53:06.379Z,83.27
2019-02-28T06:55:38.393Z,82.46
2019-02-28T06:58:08.816Z,81.50
2019-02-28T07:00:39.215Z,80.73
2019-02-28T07:03:10.670Z,80.68
2019-02-28T07:05:41.050Z,80.83
2019-02-28T07:08:13.736Z,79.45
2019-02-28T07:10:44.912Z,78.42
2019-02-28T07:13:16.299Z,77.94
2019-02-28T07:15:46.719Z,78.67
2019-02-28T07:18:18.920Z,78.77
2019-02-28T07:20:49.330Z,78.56
2019-02-28T07:23:22.184Z,78.69
2019-02-28T07:25:52.562Z,78.89
2019-02-28T07:28:22.964Z,78.29
2019-02-28T07:30:54.418Z,77.98
2019-02-28T07:33:24.870Z,77.49
2019-02-28T07:36:09.583Z,76.93
2019-02-28T07:38:40.723Z,77.10
2019-02-28T07:41:11.199Z,77.30
2019-02-28T07:43:45.911Z,77.06
2019-02-28T07:46:15.458Z,76.38
2019-02-28T07:48:46.044Z,76.41
2019-02-28T07:51:18.470Z,76.32
2019-02-28T07:53:49.102Z,77.12
2019-02-28T07:56:19.531Z,77.40
2019-02-28T07:58:50.030Z,76.41
2019-02-28T08:01:20.435Z,75.66
2019-02-28T08:03:50.963Z,74.42
2019-02-28T08:06:21.558Z,73.71
2019-02-28T08:08:54.702Z,74.51
2019-02-28T08:11:25.338Z,74.45
2019-02-28T08:13:55.848Z,73.34
2019-02-28T08:16:30.594Z,73.16
2019-02-28T08:19:01.390Z,74.14
2019-02-28T08:21:31.793Z,74.43
2019-02-28T08:24:02.552Z,73.95
2019-02-28T08:26:34.570Z,73.51
2019-02-28T08:29:07.971Z,73.82
2019-02-28T08:31:37.325Z,73.58
2019-02-28T08:34:10.734Z,73.76
2019-02-28T08:36:43.849Z,73.84
2019-02-28T08:39:16.196Z,73.21
2019-02-28T08:41:47.199Z,72.87
2019-02-28T08:44:23.956Z,72.91
2019-02-28T08:46:54.607Z,73.58
2019-02-28T08:49:25.041Z,72.60
2019-02-28T08:51:55.667Z,72.13
2019-02-28T08:54:27.213Z,72.68
2019-02-28T08:56:58.129Z,71.55
2019-02-28T08:59:28.604Z,72.28
2019-02-28T09:01:59.068Z,70.84
2019-02-28T09:04:29.658Z,72.02
2019-02-28T09:07:00.226Z,71.63
2019-02-28T09:09:31.679Z,71.25
2019-02-28T09:12:02.985Z,70.86
2019-02-28T09:14:33.494Z,69.59
2019-02-28T09:17:03.852Z,69.42
2019-02-28T09:19:36.059Z,69.16
2019-02-28T09:22:06.288Z,67.83
2019-02-28T09:24:36.688Z,67.31
2019-02-28T09:27:07.214Z,67.33
2019-02-28T09:29:37.639Z,68.14
2019-02-28T09:32:10.291Z,68.53
2019-02-28T09:34:41.318Z,67.80
2019-02-28T09:37:11.847Z,67.97
2019-02-28T09:39:42.306Z,67.69
2019-02-28T09:42:15.702Z,68.24
2019-02-28T09:44:46.312Z,68.79
2019-02-28T09:47:16.865Z,68.54
2019-02-28T09:49:48.005Z,68.95
2019-02-28T09:52:18.563Z,69.71
2019-02-28T09:54:49.038Z,69.77
2019-02-28T09:57:19.874Z,69.85
2019-02-28T09:59:52.082Z,70.08
2019-02-28T10:02:25.259Z,69.89
2019-02-28T10:04:55.704Z,70.40
2019-02-28T10:07:26.535Z,69.88
2019-02-28T10:09:57.585Z,68.10
2019-02-28T10:12:28.017Z,66.56
2019-02-28T10:15:00.542Z,65.89
2019-02-28T10:17:32.370Z,65.08
2019-02-28T10:20:11.421Z,65.32
2019-02-28T10:22:44.327Z,66.32
2019-02-28T10:25:14.659Z,66.34
2019-02-28T10:27:48.659Z,66.96
2019-02-28T10:30:31.236Z,66.90
2019-02-28T10:32:58.745Z,67.01
2019-02-28T10:35:29.156Z,66.26
2019-02-28T10:37:59.609Z,67.55
2019-02-28T10:40:30.969Z,67.29
2019-02-28T10:43:01.451Z,67.13
2019-02-28T10:45:31.851Z,67.55
2019-02-28T10:48:07.446Z,67.72
2019-02-28T10:50:42.256Z,67.84
2019-02-28T10:53:13.071Z,67.53
2019-02-28T10:55:43.586Z,68.70
2019-02-28T10:58:15.466Z,69.04
2019-02-28T11:00:46.631Z,69.13
2019-02-28T11:03:17.341Z,68.43
2019-02-28T11:05:53.327Z,69.65
2019-02-28T11:08:21.726Z,69.46
2019-02-28T11:10:56.595Z,68.76
2019-02-28T11:13:28.505Z,69.64
2019-02-28T11:15:59.359Z,69.80
2019-02-28T11:18:32.351Z,70.44
2019-02-28T11:21:02.863Z,70.81
2019-02-28T11:23:33.366Z,71.33
2019-02-28T11:26:06.523Z,71.37
2019-02-28T11:28:35.979Z,71.79
2019-02-28T11:31:06.525Z,72.43
2019-02-28T11:33:41.095Z,72.51
2019-02-28T11:36:11.761Z,73.00
2019-02-28T11:38:43.913Z,72.93
2019-02-28T11:41:18.578Z,72.81
2019-02-28T11:43:54.373Z,72.75
2019-02-28T11:46:25.227Z,72.35
2019-02-28T11:48:56.985Z,71.72
2019-02-28T11:51:27.649Z,71.73
2019-02-28T11:53:59.699Z,72.85
2019-02-28T11:56:30.135Z,72.54
2019-02-28T11:59:00.545Z,72.73
2019-02-28T12:01:30.946Z,72.32
2019-02-28T12:04:02.930Z,72.64
2019-02-28T12:06:34.269Z,72.76
2019-02-28T12:09:06.349Z,72.92
2019-02-28T12:11:37.220Z,73.32
2019-02-28T12:14:07.772Z,72.98
2019-02-28T12:16:41.513Z,73.00
2019-02-28T12:19:12.469Z,74.08
2019-02-28T12:22:14.730Z,73.51
2019-02-28T12:24:21.023Z,73.61
2019-02-28T12:26:55.293Z,73.33
2019-02-28T12:29:27.585Z,73.63
2019-02-28T12:31:58.964Z,73.36
2019-02-28T12:34:34.528Z,73.62
2019-02-28T12:37:05.005Z,73.47
2019-02-28T12:39:37.098Z,73.96
2019-02-28T12:42:09.233Z,73.47
2019-02-28T12:44:39.785Z,74.14
2019-02-28T12:47:10.295Z,74.24
2019-02-28T12:49:41.240Z,74.64
2019-02-28T12:52:14.608Z,74.55
2019-02-28T12:54:44.023Z,74.58
2019-02-28T12:57:14.438Z,74.55
2019-02-28T12:59:45.996Z,74.46
2019-02-28T13:02:17.153Z,74.75
2019-02-28T13:04:49.143Z,74.58
2019-02-28T13:07:20.280Z,74.43
2019-02-28T13:09:51.452Z,75.16
2019-02-28T13:12:23.608Z,74.65
2019-02-28T13:14:54.818Z,74.66
2019-02-28T13:17:25.319Z,74.97
2019-02-28T13:19:56.718Z,75.16
2019-02-28T13:22:29.503Z,74.74
2019-02-28T13:25:00.934Z,74.55
2019-02-28T13:27:32.181Z,74.96
2019-02-28T13:30:05.359Z,75.30
2019-02-28T13:32:38.133Z,75.76
2019-02-28T13:35:10.199Z,75.60
2019-02-28T13:37:44.822Z,75.83
2019-02-28T13:40:16.255Z,75.94
2019-02-28T13:42:46.902Z,76.07
2019-02-28T13:45:23.073Z,76.28
2019-02-28T13:47:50.982Z,76.30
2019-02-28T13:50:29.587Z,76.24
2019-02-28T13:53:02.618Z,75.94
2019-02-28T13:55:32.350Z,76.08
2019-02-28T13:58:03.816Z,76.54
2019-02-28T14:00:35.823Z,76.87
2019-02-28T14:03:10.527Z,76.95
2019-02-28T14:05:41.741Z,77.38
2019-02-28T14:08:12.686Z,76.90
2019-02-28T14:10:44.716Z,76.91
2019-02-28T14:13:15.314Z,77.23
2019-02-28T14:15:52.699Z,77.09
2019-02-28T14:18:20.322Z,76.97
2019-02-28T14:20:51.072Z,77.02
2019-02-28T14:23:21.774Z,77.25
2019-02-28T14:25:52.200Z,77.48
2019-02-28T14:28:22.627Z,77.69
2019-02-28T14:30:57.562Z,78.01
2019-02-28T14:33:25.317Z,77.95
2019-02-28T14:35:56.023Z,78.16
2019-02-28T14:38:29.557Z,78.09
2019-02-28T14:40:59.413Z,78.20
2019-02-28T14:43:29.994Z,78.42
2019-02-28T14:46:00.423Z,78.67
2019-02-28T14:48:30.933Z,78.63
2019-02-28T14:51:03.669Z,78.72
2019-02-28T14:53:33.688Z,78.88
2019-02-28T14:56:07.428Z,79.15
2019-02-28T14:58:38.007Z,79.62
2019-02-28T15:01:08.813Z,79.86
2019-02-28T15:03:39.323Z,79.78
2019-02-28T15:06:09.982Z,79.85
2019-02-28T15:08:40.475Z,79.83
2019-02-28T15:11:11.525Z,80.24
2019-02-28T15:13:41.963Z,80.37
2019-02-28T15:16:13.773Z,80.31
2019-02-28T15:18:47.134Z,80.42
2019-02-28T15:21:16.469Z,80.55
2019-02-28T15:23:48.478Z,80.56
2019-02-28T15:26:18.935Z,80.57
2019-02-28T15:28:49.541Z,80.71
2019-02-28T15:31:20.106Z,80.98
2019-02-28T15:33:50.608Z,80.99
2019-02-28T15:36:24.164Z,81.15
2019-02-28T15:38:54.759Z,81.18
2019-02-28T15:41:25.447Z,81.21
2019-02-28T15:43:56.042Z,81.26
2019-02-28T15:46:29.487Z,81.32
2019-02-28T15:48:59.889Z,81.39
2019-02-28T15:51:30.408Z,81.57
2019-02-28T15:54:01.070Z,81.79
2019-02-28T15:56:31.494Z,82.23
2019-02-28T15:59:03.489Z,82.04
2019-02-28T16:01:37.234Z,82.15
2019-02-28T16:04:07.872Z,82.11
2019-02-28T16:06:38.368Z,82.35
2019-02-28T16:09:11.519Z,82.39
2019-02-28T16:11:43.135Z,82.69
2019-02-28T16:14:14.776Z,82.74
2019-02-28T16:16:45.590Z,82.76
2019-02-28T16:19:18.898Z,82.70
2019-02-28T16:21:48.255Z,82.66
2019-02-28T16:24:18.682Z,82.85
2019-02-28T16:26:56.765Z,82.98
2019-02-28T16:29:35.484Z,82.98
2019-02-28T16:32:05.998Z,82.96
2019-02-28T16:34:38.737Z,83.03
2019-02-28T16:37:10.246Z,83.22
2019-02-28T16:39:40.744Z,83.38
2019-02-28T16:42:14.651Z,83.42
2019-02-28T16:44:46.866Z,83.54
2019-02-28T16:47:17.332Z,83.69
2019-02-28T16:49:49.051Z,83.95
2019-02-28T16:52:19.506Z,84.03
2019-02-28T16:54:50.026Z,84.14
2019-02-28T16:57:22.724Z,84.15
2019-02-28T16:59:53.193Z,83.96
2019-02-28T17:02:26.434Z,84.09
2019-02-28T17:04:59.670Z,84.10
2019-02-28T17:07:30.365Z,84.26
2019-02-28T17:10:01.692Z,84.19
2019-02-28T17:12:36.225Z,84.38
2019-02-28T17:15:12.523Z,84.46
2019-02-28T17:17:46.953Z,84.51
2019-02-28T17:20:16.871Z,84.61
2019-02-28T17:22:47.362Z,84.62
2019-02-28T17:25:18.497Z,84.74
2019-02-28T17:27:51.594Z,84.59
2019-02-28T17:30:36.245Z,84.76
2019-02-28T17:33:09.880Z,84.67
2019-02-28T17:35:47.826Z,84.72
2019-02-28T17:38:22.103Z,84.52
2019-02-28T17:40:53.496Z,84.63
2019-02-28T17:43:25.255Z,84.89
2019-02-28T17:45:55.810Z,84.76
2019-02-28T17:49:02.451Z,84.81
2019-02-28T17:52:01.065Z,84.97
2019-02-28T17:54:37.734Z,85.09
2019-02-28T17:57:18.476Z,85.18
2019-02-28T18:00:16.138Z,85.16
2019-02-28T18:03:20.346Z,85.17
2019-02-28T18:06:11.937Z,85.29
2019-02-28T18:08:49.847Z,85.15
2019-02-28T18:11:51.414Z,85.11
2019-02-28T18:14:31.211Z,85.08
2019-02-28T18:17:38.300Z,84.81
2019-02-28T18:20:20.937Z,84.89
2019-02-28T18:23:04.659Z,84.89
2019-02-28T18:25:41.149Z,84.90
2019-02-28T18:28:18.936Z,84.88
2019-02-28T18:31:09.672Z,84.57
2019-02-28T18:33:45.127Z,84.63
2019-02-28T18:36:18.056Z,84.84
2019-02-28T18:38:51.271Z,84.69
2019-02-28T18:41:29.274Z,84.94
2019-02-28T18:44:03.307Z,84.87
2019-02-28T18:46:31.920Z,84.84
2019-02-28T18:49:02.314Z,84.91
2019-02-28T18:51:32.719Z,84.73
2019-02-28T18:54:04.332Z,84.82
2019-02-28T18:56:34.861Z,84.81
2019-02-28T18:59:05.269Z,84.69
2019-02-28T19:01:37.286Z,85.06
2019-02-28T19:04:07.792Z,85.15
2019-02-28T19:06:39.204Z,85.12
2019-02-28T19:09:23.104Z,85.20
2019-02-28T19:11:53.638Z,84.95
2019-02-28T19:14:25.427Z,84.86
2019-02-28T19:16:55.896Z,84.72
2019-02-28T19:19:28.457Z,84.73
2019-02-28T19:22:01.850Z,84.68
2019-02-28T19:24:35.240Z,84.52
2019-02-28T19:27:07.179Z,84.49
2019-02-28T19:29:37.689Z,84.68
2019-02-28T19:32:08.388Z,84.66
2019-02-28T19:34:38.813Z,84.76
2019-02-28T19:37:09.319Z,84.88
2019-02-28T19:39:39.767Z,84.84
2019-02-28T19:42:11.782Z,85.15
2019-02-28T19:44:43.752Z,85.54
2019-02-28T19:47:14.209Z,86.00
2019-02-28T19:49:44.626Z,86.27
2019-02-28T19:52:15.071Z,86.29
2019-02-28T19:54:45.558Z,86.59
2019-02-28T19:57:15.999Z,86.21
2019-02-28T19:59:46.410Z,85.58
2019-02-28T20:02:20.073Z,85.22
2019-02-28T20:04:50.540Z,84.74
2019-02-28T20:07:20.985Z,84.39
2019-02-28T20:09:53.251Z,84.12
2019-02-28T20:12:23.693Z,83.93
2019-02-28T20:14:54.135Z,83.96
2019-02-28T20:17:24.682Z,83.57
2019-02-28T20:19:55.740Z,83.43
2019-02-28T20:22:26.263Z,83.16
2019-02-28T20:24:58.160Z,82.92
2019-02-28T20:27:30.175Z,82.20
2019-02-28T20:30:02.233Z,81.96
2019-02-28T20:32:32.619Z,82.00
2019-02-28T20:35:03.098Z,82.10
2019-02-28T20:37:33.537Z,82.17
2019-02-28T20:40:06.142Z,82.38
2019-02-28T20:42:36.584Z,82.19
2019-02-28T20:45:10.170Z,81.85
2019-02-28T20:47:40.565Z,80.96
2019-02-28T20:50:14.198Z,80.67
2019-02-28T20:52:44.621Z,80.65
2019-02-28T20:55:15.044Z,80.19
2019-02-28T20:57:46.445Z,79.75
2019-02-28T21:00:19.325Z,79.90
2019-02-28T21:02:51.496Z,79.54
2019-02-28T21:05:24.787Z,79.11
2019-02-28T21:07:56.681Z,79.17
2019-02-28T21:10:27.236Z,78.79
2019-02-28T21:12:57.700Z,78.69
2019-02-28T21:15:28.077Z,78.41
2019-02-28T21:17:58.519Z,78.32
2019-02-28T21:20:31.706Z,78.01
2019-02-28T21:23:02.063Z,77.97
2019-02-28T21:25:32.602Z,77.07
2019-02-28T21:28:04.580Z,76.76
2019-02-28T21:30:35.032Z,76.25
2019-02-28T21:33:05.490Z,75.89
2019-02-28T21:35:35.873Z,75.78
2019-02-28T21:38:06.369Z,75.38
2019-02-28T21:40:36.788Z,74.66
2019-02-28T21:43:07.172Z,74.18
2019-02-28T21:45:37.574Z,74.10
2019-02-28T21:48:07.969Z,73.72
2019-02-28T21:50:38.423Z,73.17
2019-02-28T21:53:08.894Z,73.15
2019-02-28T21:55:39.339Z,73.22
2019-02-28T21:58:09.759Z,72.96
2019-02-28T22:00:40.214Z,73.09
2019-02-28T22:03:10.663Z,73.19
2019-02-28T22:05:41.046Z,73.42
2019-02-28T22:08:11.446Z,73.85
2019-02-28T22:10:41.858Z,73.98
2019-02-28T22:13:14.733Z,74.08
2019-02-28T22:15:45.140Z,74.24
2019-02-28T22:18:15.533Z,74.55
2019-02-28T22:20:45.952Z,76.44
2019-02-28T22:23:16.382Z,77.58
2019-02-28T22:25:46.795Z,78.09
2019-02-28T22:28:17.240Z,78.50
2019-02-28T22:30:49.159Z,78.84
2019-02-28T22:33:37.164Z,78.56
2019-02-28T22:36:14.912Z,78.54
2019-02-28T22:38:46.908Z,78.50
2019-02-28T22:41:17.287Z,78.90
2019-02-28T22:43:47.714Z,79.11
2019-02-28T22:46:18.164Z,79.35
2019-02-28T22:48:48.569Z,79.91
2019-02-28T22:51:18.951Z,80.02
2019-02-28T22:53:49.424Z,80.62
2019-02-28T22:56:19.789Z,81.06
2019-02-28T22:58:50.214Z,81.44
2019-02-28T23:01:24.069Z,81.67
2019-02-28T23:03:56.936Z,82.19
2019-02-28T23:06:27.349Z,83.04
2019-02-28T23:08:57.752Z,83.80
2019-02-28T23:11:28.195Z,84.51
2019-02-28T23:13:58.597Z,85.04
2019-02-28T23:16:29.038Z,84.70
2019-02-28T23:18:59.422Z,84.73
2019-02-28T23:21:29.842Z,85.01
2019-02-28T23:24:00.284Z,84.89
2019-02-28T23:26:30.689Z,85.25
2019-02-28T23:29:04.225Z,85.43
2019-02-28T23:31:49.676Z,85.43
2019-02-28T23:34:26.165Z,85.27
2019-02-28T23:36:56.570Z,85.54
2019-02-28T23:39:27.000Z,85.56
2019-02-28T23:41:57.434Z,85.75
2019-02-28T23:44:27.826Z,85.70
2019-02-28T23:46:58.227Z,85.63
2019-02-28T23:49:28.612Z,85.67
2019-02-28T23:51:59.018Z,85.74
2019-02-28T23:54:29.431Z,85.80
2019-02-28T23:56:59.823Z,85.87
2019-02-28T23:59:30.270Z,86.15
